Naschitti, New Mexico
Current Conditions -  °F | °C
As of 4:53 PM on Wednesday 28 Jan 2015 (Local Time) from KGUP Reporting Station
Clear Clear  
Wind Chill: 54°   Ceiling: Unl
Heat Index: 54°   Visibility: 10mi
Dew Point: 29°   Wind: 7mph
Humidity: 38%   Direction: 300°WNW
Pressure: 30.21"   Gusts: NA
Location:  35.8166°N, 108.573°W
Report Text: KGUP 282353Z AUTO 30006KT 10SM CLR 12/M02 A3021 RMK AO2 SLP202 T01221017 10139 20089 56006
Loading
Personal Weather Stations






























Interactive Weather Map New forecast layout! Learn more

10-Day Weather Forecast

Advertisements
Track Severe Weather on mobile